Metar z połowy godziny Komunikat METAR ze strony awiacja.imgw.pl Metar Mil EPMI METAR EPMI 271400Z 11007KT 9999 SCT090 01/M01 Q0994 RMK 010 085 4/4=